LFPGMDPP

Guest
Details From LFPG - Paris Charles De Gaulle
To MDPP - Puerto Plata Gregorio Luperon Intl
Flight Number -
Tags generated
Created
Modified
Stats Distance 4,235 nm / 7,843 km
Max Altitude 35,000 ft / 10,668 m
Waypoints 25
Social Downloads 0
Likes 0
Share VATSIM

Download

Looking for another format? Having issues loading an existing format? Contact us
Advertisement - Login to hide

Notes

Using NAT tracks from 22/5/2016 Basic altitude profile: - Ascent Rate: 2500ft/min - Ascent Speed: 250kts - Cruise Altitude: 35000ft - Cruise Speed: 420kts - Descent Rate: 1500ft/min - Descent Speed: 250kts Options: - Use NATs: yes - Use PACOTS: yes - Use low airways: no - Use high airways: yes

Route

LFPG DVL UM25 GAPLI UL739 SOMAX H +51.000_--20.000 G +49.000_--40.000 +47.000_--40.000 +46.000_--40.000 H BALOO BDA A632 WIGGI B891 GRADI MDPP

ID Type Via Altitude Latitude Longitude Leg Dist Tot Dist Heading (true) Name
O LFPG APT - 0 ft / 0 m 49.00974˚ 2.56262˚ - 0 nm - Paris Charles De Gaulle
DVL VOR - 32,200 ft / 9,815 m 49.31075˚ 0.31272˚ 90 nm 90 nm 282° / 281° DEAUVILLE SAINT GATIEN VOR
INGOR FIX UM25 (AWY-HI) 28,500 ft / 8,687 m 49.36444˚ -0.25000˚ 22 nm 112 nm 279° / 278° -
ANNET FIX UM25 (AWY-HI) 34,000 ft / 10,363 m 49.65139˚ -4.00139˚ 147 nm 259 nm 278° / 275° -
NAKID FIX UM25 (AWY-HI) 34,000 ft / 10,363 m 49.71500˚ -4.62306˚ 24 nm 284 nm 279° / 279° -
IDOKI FIX UM25 (AWY-HI) 34,000 ft / 10,363 m 49.86028˚ -6.19417˚ 61 nm 345 nm 279° / 278° -
GAPLI FIX UM25 (AWY-HI) 34,000 ft / 10,363 m 50.00000˚ -8.00000˚ 70 nm 416 nm 278° / 276° -
KENUK FIX UL739 (AWY-HI) 34,000 ft / 10,363 m 50.00000˚ -12.00000˚ 154 nm 570 nm 272° / 268° -
SOMAX FIX UL739 (AWY-HI) 34,000 ft / 10,363 m 50.00000˚ -15.00000˚ 115 nm 686 nm 271° / 269° -
+51.000_--20.000 LATLON H (NAT) 35,000 ft / 10,668 m 51.00000˚ -20.00000˚ 200 nm 886 nm 289° / 286° -
+50.000_--30.000 LATLON G (NAT) 35,000 ft / 10,668 m 50.00000˚ -30.00000˚ 386 nm 1272 nm 265° / 257° -
+49.000_--40.000 LATLON G (NAT) 35,000 ft / 10,668 m 49.00000˚ -40.00000˚ 394 nm 1667 nm 265° / 257° -
+47.000_--40.000 LATLON - 34,000 ft / 10,363 m 47.00000˚ -40.00000˚ 120 nm 1787 nm 180° / 180° -
+46.000_--40.000 LATLON - 34,000 ft / 10,363 m 46.00000˚ -40.00000˚ 60 nm 1847 nm 180° / 180° -
+41.000_--50.000 LATLON H (NAT) 35,000 ft / 10,668 m 41.00000˚ -50.00000˚ 528 nm 2375 nm 239° / 232° -
BALOO FIX H (NAT) 35,000 ft / 10,668 m 34.40517˚ -62.13717˚ 698 nm 3074 nm 239° / 232° -
BDA VOR - 34,000 ft / 10,363 m 32.36436˚ -64.68958˚ 177 nm 3251 nm 227° / 226° BERMUDA VOR-DME
LOPPS FIX A632 (AWY-HI) 35,000 ft / 10,668 m 29.58333˚ -63.35000˚ 180 nm 3432 nm 157° / 158° -
CARLY FIX A632 (AWY-HI) 35,000 ft / 10,668 m 27.65734˚ -63.08612˚ 116 nm 3548 nm 173° / 173° -
WIGGI FIX A632 (AWY-HI) 35,000 ft / 10,668 m 25.37310˚ -62.78504˚ 138 nm 3686 nm 173° / 173° -
GRANN FIX B891 (AWY-HI) 34,000 ft / 10,363 m 23.50000˚ -65.80000˚ 199 nm 3886 nm 236° / 235° -
CHOCK FIX B891 (AWY-HI) 34,000 ft / 10,363 m 22.28733˚ -67.39369˚ 114 nm 4000 nm 231° / 230° -
WATRS FIX B891 (AWY-HI) 34,000 ft / 10,363 m 21.78678˚ -68.03756˚ 46 nm 4047 nm 230° / 230° -
GRADI FIX B891 (AWY-HI) 14,900 ft / 4,542 m 20.52120˚ -69.63202˚ 117 nm 4164 nm 230° / 229° -
O MDPP APT - 0 ft / 0 m 19.75790˚ -70.57003˚ 69 nm 4234 nm 229° / 229° Puerto Plata Gregorio Luperon Intl

Altitude Profile

Advertisement - Login to hide

Weather


0- 5 10 15 20 25 30 35+ Temperature / ° C

Clouds and Precipitation
Forecast for 2017-12-12 00:00 UTC. Updated 6 minutes ago

Ground ~20,000 ft ~40,000 ft Winds

LFPG

Details ICAO LFPG (CDG)
Name Paris Charles De Gaulle
Region France
Timezone Europe/Paris (UTC+1.0)
Stats Elevation 392 ft / 119 m (AMSL)
Location 49.009742° 2.562619°
Runways 4
Magnetic Variation 0.640° E

METAR

LFPG 112300Z 28012KT 9999 -SHRA SCT017 SCT030 BKN056 03/01 Q0996 NOSIG

Decode

TAF

TAF AMD LFPG 112140Z 1121/1224 28008KT 9999 BKN018 TEMPO 1121/1124 BKN013 PROB40 TEMPO 1122/1124 2000 -SHSNRA BKN007 BECMG 1200/1202 CAVOK BECMG 1223/1224 BKN006 TX05/1214Z TN00/1206Z

Decode

Departure Runways

ID Width Length Bearing (true) Bearing (mag) Surface Threshold Offset Overrun Length
08L 148 ft / 45 m 14,039 ft / 4,279 m 85.37° 84.73° Asphalt 0 ft / 0 m 0 ft / 0 m
08R 197 ft / 60 m 8,797 ft / 2,681 m 85.39° 84.75° Asphalt 0 ft / 0 m 0 ft / 0 m
09L 197 ft / 60 m 8,835 ft / 2,693 m 85.39° 84.75° Asphalt 0 ft / 0 m 0 ft / 0 m
09R 148 ft / 45 m 13,744 ft / 4,189 m 85.38° 84.74° Asphalt 0 ft / 0 m 0 ft / 0 m
26L 197 ft / 60 m 8,797 ft / 2,681 m 265.41° 264.77° Asphalt 0 ft / 0 m 0 ft / 0 m
26R 148 ft / 45 m 14,039 ft / 4,279 m 265.41° 264.77° Asphalt 1,893 ft / 577 m 0 ft / 0 m
27L 148 ft / 45 m 13,744 ft / 4,189 m 265.42° 264.78° Asphalt 1,969 ft / 600 m 0 ft / 0 m
27R 197 ft / 60 m 8,835 ft / 2,693 m 265.41° 264.77° Asphalt 0 ft / 0 m 0 ft / 0 m

MDPP

Details ICAO MDPP (POP)
Name Puerto Plata Gregorio Luperon Intl
Region Dominican Republic
Timezone America/Santo_Domingo (UTC-4.0)
Stats Elevation 15 ft / 5 m (AMSL)
Location 19.757900° -70.570035°
Runways 1
Magnetic Variation 11.227° W

METAR

MDPP 112300Z 09005KT 9999 FEW020 25/23 Q1013 METAR MDST 112300Z 08004KT 9999 FEW022 25/20 Q1012 NOSIG METAR MDPC 112300Z 04004KT 9999 FEW022 24/20 Q1013

Decode

TAF

Not found

Destination Runways

ID Width Length Bearing (true) Bearing (mag) Surface Threshold Offset Overrun Length
08 151 ft / 46 m 10,101 ft / 3,079 m 72.95° 84.18° Asphalt 0 ft / 0 m 0 ft / 0 m
26 151 ft / 46 m 10,101 ft / 3,079 m 252.95° 264.18° Asphalt 0 ft / 0 m 0 ft / 0 m

Popular Alternatives